sensor_id;sensor_type;location;lat;lon;timestamp;P1;durP1;ratioP1;P2;durP2;ratioP2
39566;SDS011;25241;41.978;14.664;2022-08-19T00:01:23;15.13;;;1.95;;
39566;SDS011;25241;41.978;14.664;2022-08-19T00:03:52;9.05;;;1.42;;
39566;SDS011;25241;41.978;14.664;2022-08-19T00:06:18;10.95;;;1.50;;
39566;SDS011;25241;41.978;14.664;2022-08-19T00:08:43;12.75;;;1.38;;
39566;SDS011;25241;41.978;14.664;2022-08-19T00:11:09;19.17;;;1.73;;
39566;SDS011;25241;41.978;14.664;2022-08-19T00:13:35;20.63;;;1.83;;
39566;SDS011;25241;41.978;14.664;2022-08-19T00:16:03;26.40;;;2.53;;
39566;SDS011;25241;41.978;14.664;2022-08-19T00:18:31;9.05;;;1.77;;
39566;SDS011;25241;41.978;14.664;2022-08-19T00:20:59;7.65;;;1.50;;
39566;SDS011;25241;41.978;14.664;2022-08-19T00:23:25;16.23;;;1.75;;
39566;SDS011;25241;41.978;14.664;2022-08-19T00:25:51;14.25;;;1.50;;
39566;SDS011;25241;41.978;14.664;2022-08-19T00:28:17;12.30;;;2.40;;
39566;SDS011;25241;41.978;14.664;2022-08-19T00:30:43;15.27;;;1.63;;
39566;SDS011;25241;41.978;14.664;2022-08-19T00:33:09;19.02;;;1.63;;
39566;SDS011;25241;41.978;14.664;2022-08-19T00:35:35;11.98;;;1.48;;
39566;SDS011;25241;41.978;14.664;2022-08-19T00:38:03;13.27;;;1.83;;
39566;SDS011;25241;41.978;14.664;2022-08-19T00:40:30;13.88;;;2.47;;
39566;SDS011;25241;41.978;14.664;2022-08-19T00:42:58;14.43;;;2.30;;
39566;SDS011;25241;41.978;14.664;2022-08-19T00:45:26;15.45;;;1.90;;
39566;SDS011;25241;41.978;14.664;2022-08-19T00:47:53;19.67;;;3.15;;
39566;SDS011;25241;41.978;14.664;2022-08-19T00:50:19;11.43;;;1.17;;
39566;SDS011;25241;41.978;14.664;2022-08-19T00:52:48;9.05;;;1.58;;
39566;SDS011;25241;41.978;14.664;2022-08-19T00:55:22;18.95;;;3.05;;
39566;SDS011;25241;41.978;14.664;2022-08-19T00:57:54;14.30;;;2.17;;
39566;SDS011;25241;41.978;14.664;2022-08-19T01:00:22;26.55;;;2.67;;
39566;SDS011;25241;41.978;14.664;2022-08-19T01:02:52;17.10;;;1.35;;
39566;SDS011;25241;41.978;14.664;2022-08-19T01:05:20;14.15;;;1.33;;
39566;SDS011;25241;41.978;14.664;2022-08-19T01:07:48;11.48;;;3.25;;
39566;SDS011;25241;41.978;14.664;2022-08-19T01:10:16;12.65;;;2.42;;
39566;SDS011;25241;41.978;14.664;2022-08-19T01:12:44;14.18;;;2.95;;
39566;SDS011;25241;41.978;14.664;2022-08-19T01:15:11;9.60;;;1.58;;
39566;SDS011;25241;41.978;14.664;2022-08-19T01:17:40;18.25;;;2.03;;
39566;SDS011;25241;41.978;14.664;2022-08-19T01:20:07;12.02;;;2.00;;
39566;SDS011;25241;41.978;14.664;2022-08-19T01:25:19;7.25;;;2.33;;
39566;SDS011;25241;41.978;14.664;2022-08-19T01:27:49;13.55;;;2.38;;
39566;SDS011;25241;41.978;14.664;2022-08-19T01:30:16;13.82;;;2.20;;
39566;SDS011;25241;41.978;14.664;2022-08-19T01:32:51;11.38;;;1.40;;
39566;SDS011;25241;41.978;14.664;2022-08-19T01:35:17;14.00;;;1.52;;
39566;SDS011;25241;41.978;14.664;2022-08-19T01:37:44;11.90;;;2.33;;
39566;SDS011;25241;41.978;14.664;2022-08-19T01:40:15;16.50;;;1.50;;
39566;SDS011;25241;41.978;14.664;2022-08-19T01:42:41;10.45;;;1.67;;
39566;SDS011;25241;41.978;14.664;2022-08-19T01:45:07;10.63;;;1.95;;
39566;SDS011;25241;41.978;14.664;2022-08-19T01:47:36;15.68;;;2.85;;
39566;SDS011;25241;41.978;14.664;2022-08-19T01:50:03;23.85;;;2.38;;
39566;SDS011;25241;41.978;14.664;2022-08-19T01:52:32;15.32;;;1.85;;
39566;SDS011;25241;41.978;14.664;2022-08-19T01:55:03;19.05;;;3.13;;
39566;SDS011;25241;41.978;14.664;2022-08-19T01:57:29;20.25;;;2.40;;
39566;SDS011;25241;41.978;14.664;2022-08-19T01:59:55;15.05;;;1.88;;
39566;SDS011;25241;41.978;14.664;2022-08-19T02:02:24;16.92;;;1.92;;
39566;SDS011;25241;41.978;14.664;2022-08-19T02:04:50;23.75;;;1.73;;
39566;SDS011;25241;41.978;14.664;2022-08-19T02:07:18;26.75;;;2.08;;
39566;SDS011;25241;41.978;14.664;2022-08-19T02:09:45;20.63;;;1.80;;
39566;SDS011;25241;41.978;14.664;2022-08-19T02:12:10;15.07;;;2.88;;
39566;SDS011;25241;41.978;14.664;2022-08-19T02:14:36;19.52;;;2.92;;
39566;SDS011;25241;41.978;14.664;2022-08-19T02:17:02;31.75;;;3.85;;
39566;SDS011;25241;41.978;14.664;2022-08-19T02:19:30;11.73;;;1.73;;
39566;SDS011;25241;41.978;14.664;2022-08-19T02:21:57;15.05;;;1.48;;
39566;SDS011;25241;41.978;14.664;2022-08-19T02:24:24;13.52;;;2.15;;
39566;SDS011;25241;41.978;14.664;2022-08-19T02:26:49;20.40;;;2.03;;
39566;SDS011;25241;41.978;14.664;2022-08-19T02:29:15;16.55;;;1.70;;
39566;SDS011;25241;41.978;14.664;2022-08-19T02:31:41;13.45;;;2.03;;
39566;SDS011;25241;41.978;14.664;2022-08-19T02:34:06;10.80;;;2.10;;
39566;SDS011;25241;41.978;14.664;2022-08-19T02:36:32;14.60;;;1.55;;
39566;SDS011;25241;41.978;14.664;2022-08-19T02:38:57;17.08;;;1.42;;
39566;SDS011;25241;41.978;14.664;2022-08-19T02:41:24;25.88;;;3.28;;
39566;SDS011;25241;41.978;14.664;2022-08-19T02:43:54;17.73;;;1.90;;
39566;SDS011;25241;41.978;14.664;2022-08-19T02:46:24;7.22;;;1.25;;
39566;SDS011;25241;41.978;14.664;2022-08-19T02:48:52;22.63;;;1.88;;
39566;SDS011;25241;41.978;14.664;2022-08-19T02:51:23;14.02;;;1.83;;
39566;SDS011;25241;41.978;14.664;2022-08-19T02:53:50;28.45;;;3.92;;
39566;SDS011;25241;41.978;14.664;2022-08-19T02:56:19;11.80;;;1.52;;
39566;SDS011;25241;41.978;14.664;2022-08-19T02:58:45;18.40;;;2.30;;
39566;SDS011;25241;41.978;14.664;2022-08-19T03:01:18;18.25;;;2.60;;
39566;SDS011;25241;41.978;14.664;2022-08-19T03:03:45;8.73;;;1.80;;
39566;SDS011;25241;41.978;14.664;2022-08-19T03:06:12;19.52;;;3.28;;
39566;SDS011;25241;41.978;14.664;2022-08-19T03:08:42;18.02;;;2.20;;
39566;SDS011;25241;41.978;14.664;2022-08-19T03:13:41;17.25;;;2.17;;
39566;SDS011;25241;41.978;14.664;2022-08-19T03:16:11;13.10;;;2.10;;
39566;SDS011;25241;41.978;14.664;2022-08-19T03:18:37;23.58;;;2.30;;
39566;SDS011;25241;41.978;14.664;2022-08-19T03:21:06;12.20;;;1.30;;
39566;SDS011;25241;41.978;14.664;2022-08-19T03:23:32;16.10;;;1.85;;
39566;SDS011;25241;41.978;14.664;2022-08-19T03:26:02;21.42;;;2.22;;
39566;SDS011;25241;41.978;14.664;2022-08-19T03:28:29;27.88;;;1.80;;
39566;SDS011;25241;41.978;14.664;2022-08-19T03:31:03;10.85;;;1.33;;
39566;SDS011;25241;41.978;14.664;2022-08-19T03:33:31;19.52;;;2.78;;
39566;SDS011;25241;41.978;14.664;2022-08-19T03:38:29;16.48;;;1.83;;
39566;SDS011;25241;41.978;14.664;2022-08-19T03:40:57;6.90;;;1.80;;
39566;SDS011;25241;41.978;14.664;2022-08-19T03:43:25;17.73;;;3.25;;
39566;SDS011;25241;41.978;14.664;2022-08-19T03:45:59;5.20;;;2.30;;
39566;SDS011;25241;41.978;14.664;2022-08-19T03:48:29;11.43;;;2.20;;
39566;SDS011;25241;41.978;14.664;2022-08-19T03:50:56;24.02;;;2.78;;
39566;SDS011;25241;41.978;14.664;2022-08-19T03:53:23;17.83;;;2.28;;
39566;SDS011;25241;41.978;14.664;2022-08-19T03:55:49;12.35;;;1.52;;
39566;SDS011;25241;41.978;14.664;2022-08-19T03:58:14;11.32;;;1.55;;
39566;SDS011;25241;41.978;14.664;2022-08-19T04:00:42;9.73;;;2.17;;
39566;SDS011;25241;41.978;14.664;2022-08-19T04:03:07;8.55;;;1.80;;
39566;SDS011;25241;41.978;14.664;2022-08-19T04:05:33;8.50;;;1.15;;
39566;SDS011;25241;41.978;14.664;2022-08-19T04:07:58;8.00;;;1.35;;
39566;SDS011;25241;41.978;14.664;2022-08-19T04:10:25;10.18;;;1.25;;
39566;SDS011;25241;41.978;14.664;2022-08-19T04:12:52;11.45;;;1.33;;
39566;SDS011;25241;41.978;14.664;2022-08-19T04:15:18;9.82;;;1.20;;
39566;SDS011;25241;41.978;14.664;2022-08-19T04:17:44;10.38;;;2.17;;
39566;SDS011;25241;41.978;14.664;2022-08-19T04:20:12;17.50;;;2.08;;
39566;SDS011;25241;41.978;14.664;2022-08-19T04:22:38;16.35;;;2.67;;
39566;SDS011;25241;41.978;14.664;2022-08-19T04:25:03;16.58;;;2.60;;
39566;SDS011;25241;41.978;14.664;2022-08-19T04:27:29;10.60;;;1.90;;
39566;SDS011;25241;41.978;14.664;2022-08-19T04:29:58;12.27;;;1.33;;
39566;SDS011;25241;41.978;14.664;2022-08-19T04:32:24;17.05;;;2.10;;
39566;SDS011;25241;41.978;14.664;2022-08-19T04:34:49;19.88;;;2.42;;
39566;SDS011;25241;41.978;14.664;2022-08-19T04:37:17;12.20;;;2.53;;
39566;SDS011;25241;41.978;14.664;2022-08-19T04:39:43;8.80;;;1.92;;
39566;SDS011;25241;41.978;14.664;2022-08-19T04:42:27;13.10;;;1.70;;
39566;SDS011;25241;41.978;14.664;2022-08-19T04:45:05;10.82;;;1.58;;
39566;SDS011;25241;41.978;14.664;2022-08-19T04:47:37;14.35;;;2.75;;
39566;SDS011;25241;41.978;14.664;2022-08-19T04:50:09;25.02;;;2.47;;
39566;SDS011;25241;41.978;14.664;2022-08-19T04:52:40;11.55;;;2.33;;
39566;SDS011;25241;41.978;14.664;2022-08-19T04:55:09;7.53;;;2.15;;
39566;SDS011;25241;41.978;14.664;2022-08-19T04:57:35;17.45;;;2.75;;
39566;SDS011;25241;41.978;14.664;2022-08-19T05:00:04;20.10;;;2.78;;
39566;SDS011;25241;41.978;14.664;2022-08-19T05:02:30;14.90;;;2.15;;
39566;SDS011;25241;41.978;14.664;2022-08-19T05:04:56;14.38;;;2.60;;
39566;SDS011;25241;41.978;14.664;2022-08-19T05:07:23;24.95;;;2.47;;
39566;SDS011;25241;41.978;14.664;2022-08-19T05:09:49;14.73;;;2.25;;
39566;SDS011;25241;41.978;14.664;2022-08-19T05:12:14;13.05;;;1.63;;
39566;SDS011;25241;41.978;14.664;2022-08-19T05:14:40;20.02;;;2.50;;
39566;SDS011;25241;41.978;14.664;2022-08-19T05:17:06;15.55;;;2.22;;
39566;SDS011;25241;41.978;14.664;2022-08-19T05:19:31;12.32;;;2.53;;
39566;SDS011;25241;41.978;14.664;2022-08-19T05:22:15;18.13;;;1.95;;
39566;SDS011;25241;41.978;14.664;2022-08-19T05:25:00;14.85;;;1.83;;
39566;SDS011;25241;41.978;14.664;2022-08-19T05:27:30;7.87;;;1.20;;
39566;SDS011;25241;41.978;14.664;2022-08-19T05:29:56;18.63;;;2.72;;
39566;SDS011;25241;41.978;14.664;2022-08-19T05:32:22;12.73;;;2.30;;
39566;SDS011;25241;41.978;14.664;2022-08-19T05:34:48;10.73;;;1.98;;
39566;SDS011;25241;41.978;14.664;2022-08-19T05:37:14;24.98;;;2.25;;
39566;SDS011;25241;41.978;14.664;2022-08-19T05:39:42;15.68;;;1.85;;
39566;SDS011;25241;41.978;14.664;2022-08-19T05:42:08;8.07;;;1.67;;
39566;SDS011;25241;41.978;14.664;2022-08-19T05:44:36;12.73;;;1.95;;
39566;SDS011;25241;41.978;14.664;2022-08-19T05:47:06;12.40;;;1.75;;
39566;SDS011;25241;41.978;14.664;2022-08-19T05:49:33;21.13;;;2.85;;
39566;SDS011;25241;41.978;14.664;2022-08-19T05:52:01;11.27;;;1.85;;
39566;SDS011;25241;41.978;14.664;2022-08-19T05:54:28;14.35;;;2.20;;
39566;SDS011;25241;41.978;14.664;2022-08-19T05:56:57;7.93;;;1.50;;
39566;SDS011;25241;41.978;14.664;2022-08-19T05:59:23;17.08;;;2.35;;
39566;SDS011;25241;41.978;14.664;2022-08-19T06:01:49;20.25;;;2.25;;
39566;SDS011;25241;41.978;14.664;2022-08-19T06:04:19;17.15;;;2.75;;
39566;SDS011;25241;41.978;14.664;2022-08-19T06:06:48;9.48;;;1.60;;
39566;SDS011;25241;41.978;14.664;2022-08-19T06:09:21;18.08;;;2.45;;
39566;SDS011;25241;41.978;14.664;2022-08-19T06:11:48;9.32;;;1.35;;
39566;SDS011;25241;41.978;14.664;2022-08-19T06:14:20;14.52;;;1.88;;
39566;SDS011;25241;41.978;14.664;2022-08-19T06:19:14;15.68;;;2.03;;
39566;SDS011;25241;41.978;14.664;2022-08-19T06:21:42;14.82;;;2.55;;
39566;SDS011;25241;41.978;14.664;2022-08-19T06:24:12;8.40;;;1.50;;
39566;SDS011;25241;41.978;14.664;2022-08-19T06:26:41;16.23;;;2.03;;
39566;SDS011;25241;41.978;14.664;2022-08-19T06:29:09;15.10;;;2.20;;
39566;SDS011;25241;41.978;14.664;2022-08-19T06:31:36;15.05;;;2.50;;
39566;SDS011;25241;41.978;14.664;2022-08-19T06:34:05;17.33;;;1.63;;
39566;SDS011;25241;41.978;14.664;2022-08-19T06:36:35;16.88;;;2.13;;
39566;SDS011;25241;41.978;14.664;2022-08-19T06:39:03;9.45;;;2.25;;
39566;SDS011;25241;41.978;14.664;2022-08-19T06:41:31;15.57;;;2.05;;
39566;SDS011;25241;41.978;14.664;2022-08-19T06:43:57;12.55;;;1.48;;
39566;SDS011;25241;41.978;14.664;2022-08-19T06:46:23;12.35;;;2.40;;
39566;SDS011;25241;41.978;14.664;2022-08-19T06:48:51;11.35;;;1.77;;
39566;SDS011;25241;41.978;14.664;2022-08-19T06:51:18;26.73;;;2.80;;
39566;SDS011;25241;41.978;14.664;2022-08-19T06:53:48;15.50;;;2.15;;
39566;SDS011;25241;41.978;14.664;2022-08-19T06:56:15;15.75;;;2.85;;
39566;SDS011;25241;41.978;14.664;2022-08-19T06:58:42;23.63;;;2.97;;
39566;SDS011;25241;41.978;14.664;2022-08-19T07:01:08;17.80;;;2.38;;
39566;SDS011;25241;41.978;14.664;2022-08-19T07:03:35;9.02;;;3.05;;
39566;SDS011;25241;41.978;14.664;2022-08-19T07:06:09;16.25;;;2.47;;
39566;SDS011;25241;41.978;14.664;2022-08-19T07:08:36;10.73;;;1.63;;
39566;SDS011;25241;41.978;14.664;2022-08-19T07:11:08;18.08;;;2.83;;
39566;SDS011;25241;41.978;14.664;2022-08-19T07:16:09;25.13;;;2.33;;
39566;SDS011;25241;41.978;14.664;2022-08-19T07:18:36;23.15;;;1.90;;
39566;SDS011;25241;41.978;14.664;2022-08-19T07:21:06;16.27;;;1.55;;
39566;SDS011;25241;41.978;14.664;2022-08-19T07:23:34;21.45;;;2.50;;
39566;SDS011;25241;41.978;14.664;2022-08-19T07:26:08;13.15;;;2.42;;
39566;SDS011;25241;41.978;14.664;2022-08-19T07:28:38;30.65;;;3.20;;
39566;SDS011;25241;41.978;14.664;2022-08-19T07:31:07;33.00;;;2.92;;
39566;SDS011;25241;41.978;14.664;2022-08-19T07:33:33;14.02;;;3.45;;
39566;SDS011;25241;41.978;14.664;2022-08-19T07:36:03;12.60;;;1.60;;
39566;SDS011;25241;41.978;14.664;2022-08-19T07:38:33;19.30;;;2.88;;
39566;SDS011;25241;41.978;14.664;2022-08-19T07:40:59;20.05;;;2.58;;
39566;SDS011;25241;41.978;14.664;2022-08-19T07:43:25;20.63;;;2.75;;
39566;SDS011;25241;41.978;14.664;2022-08-19T07:45:54;18.23;;;2.47;;
39566;SDS011;25241;41.978;14.664;2022-08-19T07:48:25;19.98;;;2.85;;
39566;SDS011;25241;41.978;14.664;2022-08-19T07:50:55;21.67;;;3.15;;
39566;SDS011;25241;41.978;14.664;2022-08-19T07:53:24;26.25;;;3.33;;
39566;SDS011;25241;41.978;14.664;2022-08-19T07:55:50;22.13;;;2.30;;
39566;SDS011;25241;41.978;14.664;2022-08-19T07:58:17;18.13;;;2.95;;
39566;SDS011;25241;41.978;14.664;2022-08-19T08:00:46;13.90;;;2.00;;
39566;SDS011;25241;41.978;14.664;2022-08-19T08:03:13;19.67;;;2.23;;
39566;SDS011;25241;41.978;14.664;2022-08-19T08:05:40;18.70;;;2.65;;
39566;SDS011;25241;41.978;14.664;2022-08-19T08:08:24;13.85;;;2.20;;
39566;SDS011;25241;41.978;14.664;2022-08-19T08:11:02;24.48;;;2.65;;
39566;SDS011;25241;41.978;14.664;2022-08-19T08:13:29;27.30;;;3.50;;
39566;SDS011;25241;41.978;14.664;2022-08-19T08:15:57;20.70;;;2.63;;
39566;SDS011;25241;41.978;14.664;2022-08-19T08:18:24;36.80;;;3.70;;
39566;SDS011;25241;41.978;14.664;2022-08-19T08:20:50;19.83;;;2.65;;
39566;SDS011;25241;41.978;14.664;2022-08-19T08:23:15;27.73;;;4.32;;
39566;SDS011;25241;41.978;14.664;2022-08-19T08:25:53;23.80;;;3.05;;
39566;SDS011;25241;41.978;14.664;2022-08-19T08:28:21;16.73;;;2.38;;
39566;SDS011;25241;41.978;14.664;2022-08-19T08:30:48;13.00;;;2.65;;
39566;SDS011;25241;41.978;14.664;2022-08-19T08:33:21;15.32;;;2.05;;
39566;SDS011;25241;41.978;14.664;2022-08-19T08:35:47;18.50;;;3.95;;
39566;SDS011;25241;41.978;14.664;2022-08-19T08:38:14;15.05;;;2.80;;
39566;SDS011;25241;41.978;14.664;2022-08-19T08:40:47;12.98;;;1.88;;
39566;SDS011;25241;41.978;14.664;2022-08-19T08:48:54;13.32;;;2.22;;
39566;SDS011;25241;41.978;14.664;2022-08-19T08:51:26;28.52;;;2.15;;
39566;SDS011;25241;41.978;14.664;2022-08-19T08:53:55;14.05;;;2.15;;
39566;SDS011;25241;41.978;14.664;2022-08-19T08:56:23;16.65;;;2.95;;
39566;SDS011;25241;41.978;14.664;2022-08-19T08:59:14;10.15;;;2.20;;
39566;SDS011;25241;41.978;14.664;2022-08-19T09:02:01;22.00;;;3.17;;
39566;SDS011;25241;41.978;14.664;2022-08-19T09:04:29;11.25;;;2.28;;
39566;SDS011;25241;41.978;14.664;2022-08-19T09:06:58;10.45;;;2.17;;
39566;SDS011;25241;41.978;14.664;2022-08-19T09:09:43;9.13;;;1.80;;
39566;SDS011;25241;41.978;14.664;2022-08-19T09:17:14;7.97;;;1.55;;
39566;SDS011;25241;41.978;14.664;2022-08-19T09:19:51;17.98;;;2.42;;
39566;SDS011;25241;41.978;14.664;2022-08-19T09:22:18;9.88;;;1.60;;
39566;SDS011;25241;41.978;14.664;2022-08-19T09:24:46;15.70;;;2.47;;
39566;SDS011;25241;41.978;14.664;2022-08-19T09:27:13;10.10;;;1.73;;
39566;SDS011;25241;41.978;14.664;2022-08-19T09:29:39;11.25;;;2.13;;
39566;SDS011;25241;41.978;14.664;2022-08-19T09:32:05;16.63;;;2.13;;
39566;SDS011;25241;41.978;14.664;2022-08-19T09:34:31;13.23;;;2.08;;
39566;SDS011;25241;41.978;14.664;2022-08-19T09:36:57;12.70;;;2.03;;
39566;SDS011;25241;41.978;14.664;2022-08-19T09:39:25;13.32;;;2.72;;
39566;SDS011;25241;41.978;14.664;2022-08-19T09:41:50;11.82;;;1.58;;
39566;SDS011;25241;41.978;14.664;2022-08-19T09:44:16;9.02;;;1.42;;
39566;SDS011;25241;41.978;14.664;2022-08-19T09:46:42;6.05;;;1.98;;
39566;SDS011;25241;41.978;14.664;2022-08-19T09:49:07;9.15;;;1.80;;
39566;SDS011;25241;41.978;14.664;2022-08-19T09:51:33;12.95;;;1.70;;
39566;SDS011;25241;41.978;14.664;2022-08-19T09:54:01;20.35;;;1.92;;
39566;SDS011;25241;41.978;14.664;2022-08-19T09:56:28;16.45;;;1.77;;
39566;SDS011;25241;41.978;14.664;2022-08-19T09:58:57;12.18;;;1.33;;
39566;SDS011;25241;41.978;14.664;2022-08-19T10:01:25;11.55;;;1.92;;
39566;SDS011;25241;41.978;14.664;2022-08-19T10:03:55;14.10;;;1.45;;
39566;SDS011;25241;41.978;14.664;2022-08-19T10:06:22;14.38;;;1.80;;
39566;SDS011;25241;41.978;14.664;2022-08-19T10:08:49;4.50;;;1.52;;
39566;SDS011;25241;41.978;14.664;2022-08-19T10:11:17;15.25;;;3.03;;
39566;SDS011;25241;41.978;14.664;2022-08-19T10:13:44;9.23;;;1.50;;
39566;SDS011;25241;41.978;14.664;2022-08-19T10:16:14;5.60;;;1.13;;
39566;SDS011;25241;41.978;14.664;2022-08-19T10:18:43;10.88;;;1.38;;
39566;SDS011;25241;41.978;14.664;2022-08-19T10:21:11;3.65;;;1.02;;
39566;SDS011;25241;41.978;14.664;2022-08-19T10:23:39;10.45;;;1.45;;
39566;SDS011;25241;41.978;14.664;2022-08-19T10:26:09;7.75;;;1.67;;
39566;SDS011;25241;41.978;14.664;2022-08-19T10:28:35;6.82;;;1.20;;
39566;SDS011;25241;41.978;14.664;2022-08-19T10:31:09;11.23;;;1.10;;
39566;SDS011;25241;41.978;14.664;2022-08-19T10:33:36;5.45;;;1.00;;
39566;SDS011;25241;41.978;14.664;2022-08-19T10:36:03;5.93;;;1.20;;
39566;SDS011;25241;41.978;14.664;2022-08-19T10:38:34;7.45;;;1.05;;
39566;SDS011;25241;41.978;14.664;2022-08-19T10:41:07;9.48;;;1.65;;
39566;SDS011;25241;41.978;14.664;2022-08-19T10:43:37;1.27;;;0.63;;
39566;SDS011;25241;41.978;14.664;2022-08-19T10:46:05;5.22;;;1.05;;
39566;SDS011;25241;41.978;14.664;2022-08-19T10:48:35;5.00;;;0.98;;
39566;SDS011;25241;41.978;14.664;2022-08-19T10:51:00;1.90;;;0.60;;
39566;SDS011;25241;41.978;14.664;2022-08-19T10:53:45;7.00;;;1.33;;
39566;SDS011;25241;41.978;14.664;2022-08-19T10:56:11;2.28;;;0.90;;
39566;SDS011;25241;41.978;14.664;2022-08-19T10:58:57;5.28;;;0.90;;
39566;SDS011;25241;41.978;14.664;2022-08-19T11:01:24;4.85;;;0.77;;
39566;SDS011;25241;41.978;14.664;2022-08-19T11:03:50;6.13;;;0.75;;
39566;SDS011;25241;41.978;14.664;2022-08-19T11:06:16;5.22;;;0.82;;
39566;SDS011;25241;41.978;14.664;2022-08-19T11:08:41;7.05;;;1.08;;
39566;SDS011;25241;41.978;14.664;2022-08-19T11:11:10;6.05;;;1.08;;
39566;SDS011;25241;41.978;14.664;2022-08-19T11:13:37;4.55;;;0.70;;
39566;SDS011;25241;41.978;14.664;2022-08-19T11:16:09;7.00;;;1.05;;
39566;SDS011;25241;41.978;14.664;2022-08-19T11:18:41;5.47;;;1.00;;
39566;SDS011;25241;41.978;14.664;2022-08-19T11:21:16;4.82;;;0.70;;
39566;SDS011;25241;41.978;14.664;2022-08-19T11:24:04;3.72;;;0.68;;
39566;SDS011;25241;41.978;14.664;2022-08-19T11:26:43;4.80;;;0.70;;
39566;SDS011;25241;41.978;14.664;2022-08-19T11:29:09;5.93;;;1.33;;
39566;SDS011;25241;41.978;14.664;2022-08-19T11:31:38;3.90;;;0.85;;
39566;SDS011;25241;41.978;14.664;2022-08-19T11:34:07;1.57;;;1.07;;
39566;SDS011;25241;41.978;14.664;2022-08-19T11:36:36;8.97;;;0.70;;
39566;SDS011;25241;41.978;14.664;2022-08-19T11:39:04;4.15;;;1.10;;
39566;SDS011;25241;41.978;14.664;2022-08-19T11:41:31;7.65;;;2.08;;
39566;SDS011;25241;41.978;14.664;2022-08-19T11:43:56;9.30;;;3.22;;
39566;SDS011;25241;41.978;14.664;2022-08-19T11:46:25;6.10;;;1.02;;
39566;SDS011;25241;41.978;14.664;2022-08-19T11:48:54;3.58;;;0.93;;
39566;SDS011;25241;41.978;14.664;2022-08-19T11:51:21;8.85;;;1.60;;
39566;SDS011;25241;41.978;14.664;2022-08-19T11:53:51;3.00;;;1.30;;
39566;SDS011;25241;41.978;14.664;2022-08-19T11:58:46;5.53;;;1.13;;
39566;SDS011;25241;41.978;14.664;2022-08-19T12:01:13;2.45;;;1.02;;
39566;SDS011;25241;41.978;14.664;2022-08-19T12:03:41;2.58;;;1.10;;
39566;SDS011;25241;41.978;14.664;2022-08-19T12:06:13;2.70;;;0.88;;
39566;SDS011;25241;41.978;14.664;2022-08-19T12:08:41;4.93;;;1.50;;
39566;SDS011;25241;41.978;14.664;2022-08-19T12:11:08;2.95;;;0.93;;
39566;SDS011;25241;41.978;14.664;2022-08-19T12:13:34;4.00;;;2.42;;
39566;SDS011;25241;41.978;14.664;2022-08-19T12:16:00;4.68;;;1.00;;
39566;SDS011;25241;41.978;14.664;2022-08-19T12:18:27;3.92;;;1.27;;
39566;SDS011;25241;41.978;14.664;2022-08-19T12:20:53;2.90;;;0.45;;
39566;SDS011;25241;41.978;14.664;2022-08-19T12:23:21;3.70;;;2.35;;
39566;SDS011;25241;41.978;14.664;2022-08-19T12:25:48;6.75;;;3.63;;
39566;SDS011;25241;41.978;14.664;2022-08-19T12:28:20;1.95;;;0.93;;
39566;SDS011;25241;41.978;14.664;2022-08-19T12:30:47;4.25;;;1.60;;
39566;SDS011;25241;41.978;14.664;2022-08-19T12:33:13;2.88;;;1.13;;
39566;SDS011;25241;41.978;14.664;2022-08-19T12:35:40;4.38;;;0.95;;
39566;SDS011;25241;41.978;14.664;2022-08-19T12:38:07;0.63;;;0.63;;
39566;SDS011;25241;41.978;14.664;2022-08-19T12:40:33;3.50;;;0.57;;
39566;SDS011;25241;41.978;14.664;2022-08-19T12:42:59;1.35;;;0.50;;
39566;SDS011;25241;41.978;14.664;2022-08-19T12:45:25;1.15;;;0.65;;
39566;SDS011;25241;41.978;14.664;2022-08-19T12:47:50;0.75;;;0.60;;
39566;SDS011;25241;41.978;14.664;2022-08-19T12:50:18;3.53;;;1.42;;
39566;SDS011;25241;41.978;14.664;2022-08-19T12:52:44;4.05;;;0.80;;
39566;SDS011;25241;41.978;14.664;2022-08-19T12:55:10;6.50;;;2.35;;
39566;SDS011;25241;41.978;14.664;2022-08-19T12:57:38;3.17;;;1.00;;
39566;SDS011;25241;41.978;14.664;2022-08-19T13:00:10;2.35;;;0.82;;
39566;SDS011;25241;41.978;14.664;2022-08-19T13:02:39;3.70;;;1.08;;
39566;SDS011;25241;41.978;14.664;2022-08-19T13:05:09;1.92;;;0.40;;
39566;SDS011;25241;41.978;14.664;2022-08-19T13:14:54;1.50;;;0.80;;
39566;SDS011;25241;41.978;14.664;2022-08-19T13:17:23;9.15;;;0.60;;
39566;SDS011;25241;41.978;14.664;2022-08-19T13:19:49;2.67;;;0.90;;
39566;SDS011;25241;41.978;14.664;2022-08-19T13:22:15;6.38;;;0.57;;
39566;SDS011;25241;41.978;14.664;2022-08-19T13:24:44;1.08;;;0.40;;
39566;SDS011;25241;41.978;14.664;2022-08-19T13:27:12;3.17;;;0.43;;
39566;SDS011;25241;41.978;14.664;2022-08-19T13:29:39;11.45;;;0.63;;
39566;SDS011;25241;41.978;14.664;2022-08-19T13:32:23;1.67;;;0.70;;
39566;SDS011;25241;41.978;14.664;2022-08-19T13:35:08;3.13;;;0.60;;
39566;SDS011;25241;41.978;14.664;2022-08-19T13:37:33;1.77;;;0.93;;
39566;SDS011;25241;41.978;14.664;2022-08-19T13:40:08;4.47;;;0.40;;
39566;SDS011;25241;41.978;14.664;2022-08-19T13:42:40;7.32;;;0.50;;
39566;SDS011;25241;41.978;14.664;2022-08-19T13:45:07;8.45;;;0.93;;
39566;SDS011;25241;41.978;14.664;2022-08-19T13:47:36;0.75;;;0.40;;
39566;SDS011;25241;41.978;14.664;2022-08-19T13:50:07;4.05;;;0.80;;
39566;SDS011;25241;41.978;14.664;2022-08-19T13:52:37;4.13;;;0.60;;
39566;SDS011;25241;41.978;14.664;2022-08-19T13:55:03;0.80;;;0.50;;
39566;SDS011;25241;41.978;14.664;2022-08-19T13:57:29;3.40;;;0.60;;
39566;SDS011;25241;41.978;14.664;2022-08-19T13:59:58;2.58;;;0.43;;
39566;SDS011;25241;41.978;14.664;2022-08-19T14:02:24;5.47;;;0.77;;
39566;SDS011;25241;41.978;14.664;2022-08-19T14:04:50;2.30;;;0.70;;
39566;SDS011;25241;41.978;14.664;2022-08-19T14:07:17;11.05;;;0.80;;
39566;SDS011;25241;41.978;14.664;2022-08-19T14:09:49;2.67;;;0.55;;
39566;SDS011;25241;41.978;14.664;2022-08-19T14:12:18;2.15;;;0.52;;
39566;SDS011;25241;41.978;14.664;2022-08-19T14:14:45;0.52;;;0.52;;
39566;SDS011;25241;41.978;14.664;2022-08-19T14:17:11;3.60;;;0.65;;
39566;SDS011;25241;41.978;14.664;2022-08-19T14:19:37;2.28;;;0.50;;
39566;SDS011;25241;41.978;14.664;2022-08-19T14:22:02;2.55;;;0.70;;
39566;SDS011;25241;41.978;14.664;2022-08-19T14:24:29;5.68;;;0.80;;
39566;SDS011;25241;41.978;14.664;2022-08-19T14:26:55;1.65;;;0.73;;
39566;SDS011;25241;41.978;14.664;2022-08-19T14:29:20;4.28;;;0.95;;
39566;SDS011;25241;41.978;14.664;2022-08-19T14:31:48;3.95;;;0.63;;
39566;SDS011;25241;41.978;14.664;2022-08-19T14:34:14;1.27;;;0.40;;
39566;SDS011;25241;41.978;14.664;2022-08-19T14:36:41;3.53;;;1.00;;
39566;SDS011;25241;41.978;14.664;2022-08-19T14:39:07;1.33;;;0.60;;
39566;SDS011;25241;41.978;14.664;2022-08-19T14:41:34;2.63;;;1.45;;
39566;SDS011;25241;41.978;14.664;2022-08-19T14:44:00;1.70;;;0.55;;
39566;SDS011;25241;41.978;14.664;2022-08-19T14:46:27;1.38;;;0.60;;
39566;SDS011;25241;41.978;14.664;2022-08-19T14:48:54;1.33;;;0.70;;
39566;SDS011;25241;41.978;14.664;2022-08-19T14:51:21;4.35;;;1.00;;
39566;SDS011;25241;41.978;14.664;2022-08-19T14:53:47;1.08;;;0.55;;
39566;SDS011;25241;41.978;14.664;2022-08-19T14:56:17;2.38;;;1.00;;
39566;SDS011;25241;41.978;14.664;2022-08-19T14:58:44;1.45;;;0.95;;
39566;SDS011;25241;41.978;14.664;2022-08-19T15:01:11;0.47;;;0.47;;
39566;SDS011;25241;41.978;14.664;2022-08-19T15:03:37;2.92;;;0.63;;
39566;SDS011;25241;41.978;14.664;2022-08-19T15:06:05;2.65;;;0.60;;